Time;durP1;ratioP1;P1;durP2;ratioP2;P2;SDS_P1;SDS_P2;PMS_P1;PMS_P2;Temp;Humidity;BMP_temperature;BMP_pressure;BME280_temperature;BME280_humidity;BME280_pressure;Samples;Min_cycle;Max_cycle;Signal;HPM_P1;HPM_P2
2021/12/30 00:00:25;;;;;;;;;1.00;1.00;;;;;21.31;47.72;101273.34;5061880;28;51409;-50
2021/12/30 00:02:50;;;;;;;;;0.75;0.75;;;;;21.29;47.55;101278.22;5078479;28;51125;-48
2021/12/30 00:05:16;;;;;;;;;0.00;0.00;;;;;21.31;47.41;101276.09;5077489;28;52076;-48
2021/12/30 00:07:43;;;;;;;;;0.00;0.00;;;;;21.35;47.50;101280.09;5068222;28;50961;-50
2021/12/30 00:10:09;;;;;;;;;0.00;0.00;;;;;21.40;47.54;101280.31;5059196;28;51415;-51
2021/12/30 00:12:35;;;;;;;;;0.00;0.00;;;;;21.41;47.50;101287.50;5057411;28;51272;-51
2021/12/30 00:15:01;;;;;;;;;2.00;0.00;;;;;21.42;47.51;101291.13;5078379;28;51391;-50
2021/12/30 00:17:26;;;;;;;;;0.50;0.50;;;;;21.40;46.90;101287.72;5059597;28;51081;-53
2021/12/30 00:19:52;;;;;;;;;0.00;0.00;;;;;21.37;47.41;101282.66;5076888;28;51499;-52
2021/12/30 00:22:17;;;;;;;;;1.00;1.00;;;;;21.32;47.07;101289.66;5078892;28;51116;-50
2021/12/30 00:24:43;;;;;;;;;4.25;0.00;;;;;21.30;46.92;101289.03;5078501;28;51714;-50
2021/12/30 00:27:08;;;;;;;;;0.00;0.00;;;;;21.31;47.09;101293.47;5085942;27;51173;-49
2021/12/30 00:29:33;;;;;;;;;0.00;0.00;;;;;21.36;47.25;101279.03;5079628;27;51028;-53
2021/12/30 00:31:59;;;;;;;;;0.00;0.00;;;;;21.42;47.03;101285.59;5078852;28;51113;-53
2021/12/30 00:34:24;;;;;;;;;0.75;0.75;;;;;21.43;47.39;101290.03;5078253;28;51889;-53
2021/12/30 00:36:50;;;;;;;;;0.25;0.00;;;;;21.44;47.23;101281.56;5065404;28;50916;-48
2021/12/30 00:39:15;;;;;;;;;0.00;0.00;;;;;21.41;47.28;101287.50;5073089;28;51551;-51
2021/12/30 00:41:41;;;;;;;;;0.50;0.50;;;;;21.40;47.36;101284.97;5079231;28;51139;-53
2021/12/30 00:44:06;;;;;;;;;0.00;0.00;;;;;21.37;47.36;101290.94;5073539;28;52917;-48
2021/12/30 00:46:31;;;;;;;;;1.00;0.00;;;;;21.34;46.90;101292.19;5063436;28;51029;-48
2021/12/30 00:48:57;;;;;;;;;0.00;0.00;;;;;21.30;47.27;101289.03;5057922;28;51171;-47
2021/12/30 00:51:22;;;;;;;;;0.75;0.75;;;;;21.30;47.38;101297.31;5058023;28;51638;-49
2021/12/30 00:53:48;;;;;;;;;0.00;0.00;;;;;21.36;47.49;101301.06;5058342;28;51763;-50
2021/12/30 00:56:13;;;;;;;;;0.00;0.00;;;;;21.41;46.88;101309.56;5066037;28;51067;-53
2021/12/30 00:58:39;;;;;;;;;0.50;0.50;;;;;21.46;46.80;101311.66;5068674;28;51113;-51
2021/12/30 01:01:05;;;;;;;;;0.00;0.00;;;;;21.46;46.76;101309.75;5058360;28;51310;-47
2021/12/30 01:03:31;;;;;;;;;0.25;0.00;;;;;21.45;46.82;101309.97;5057793;28;51892;-50
2021/12/30 01:05:57;;;;;;;;;1.75;0.75;;;;;21.43;47.29;101317.59;5063564;28;51359;-51
2021/12/30 01:08:22;;;;;;;;;0.00;0.00;;;;;21.41;46.86;101319.75;5071174;28;51203;-51
2021/12/30 01:10:48;;;;;;;;;1.00;1.00;;;;;21.37;46.95;101322.09;5058992;28;51831;-54
2021/12/30 01:13:23;;;;;;;;;0.50;0.50;;;;;21.34;47.14;101333.53;5060933;28;51801;-49
2021/12/30 01:15:59;;;;;;;;;0.00;0.00;;;;;21.31;47.35;101322.94;5076044;27;51256;-51
2021/12/30 01:20:59;;;;;;;;;0.25;0.25;;;;;21.42;46.87;101346.22;5058105;28;52007;-51
2021/12/30 01:23:26;;;;;;;;;0.00;0.00;;;;;21.47;46.91;101354.72;5057908;28;51977;-48
2021/12/30 01:25:51;;;;;;;;;0.00;0.00;;;;;21.49;47.25;101352.59;5058775;27;51030;-49
2021/12/30 01:28:17;;;;;;;;;1.00;0.00;;;;;21.49;46.81;101353.44;5069038;27;51174;-49
2021/12/30 01:30:43;;;;;;;;;0.00;0.00;;;;;21.46;46.84;101355.75;5058243;28;50971;-49
2021/12/30 01:33:08;;;;;;;;;1.25;1.00;;;;;21.44;46.79;101357.88;5057517;28;51014;-53
2021/12/30 01:35:33;;;;;;;;;0.50;0.50;;;;;21.41;47.29;101358.31;5057735;28;51070;-51
2021/12/30 01:38:01;;;;;;;;;0.00;0.00;;;;;21.38;47.30;101367.88;5061524;28;51083;-52
2021/12/30 01:40:29;;;;;;;;;0.00;0.00;;;;;21.36;47.23;101366.38;5078027;28;51183;-51
2021/12/30 01:42:54;;;;;;;;;0.00;0.00;;;;;21.37;47.36;101368.09;5076997;28;51096;-53
2021/12/30 01:45:20;;;;;;;;;0.00;0.00;;;;;21.41;46.73;101377.63;5057735;28;51030;-52
2021/12/30 01:47:50;;;;;;;;;0.00;0.00;;;;;21.48;47.14;101371.03;5058117;28;51648;-51
2021/12/30 01:50:20;;;;;;;;;0.00;0.00;;;;;21.51;46.86;101380.78;5057616;28;51201;-53
2021/12/30 01:52:46;;;;;;;;;0.00;0.00;;;;;21.51;47.00;101375.25;5057659;28;52657;-51
2021/12/30 01:55:13;;;;;;;;;0.00;0.00;;;;;21.51;47.11;101383.53;5077808;28;50996;-50
2021/12/30 01:57:39;;;;;;;;;0.00;0.00;;;;;21.48;46.89;101372.94;5077422;28;51060;-51
2021/12/30 02:00:08;;;;;;;;;0.75;0.00;;;;;21.43;47.07;101379.09;5057651;28;51015;-49
2021/12/30 02:02:34;;;;;;;;;0.00;0.00;;;;;21.39;46.96;101375.06;5057239;28;52153;-51
2021/12/30 02:04:59;;;;;;;;;0.00;0.00;;;;;21.36;47.10;101380.16;5072929;28;51113;-50
2021/12/30 02:07:25;;;;;;;;;0.75;0.75;;;;;21.33;46.93;101375.94;5077843;28;51175;-48
2021/12/30 02:09:51;;;;;;;;;0.75;0.75;;;;;21.30;47.10;101379.97;5059785;28;51018;-51
2021/12/30 02:12:16;;;;;;;;;0.00;0.00;;;;;21.27;47.02;101380.41;5057838;28;52860;-50
2021/12/30 02:14:41;;;;;;;;;0.00;0.00;;;;;21.24;47.04;101388.19;5069819;28;51093;-50
2021/12/30 02:17:07;;;;;;;;;0.00;0.00;;;;;21.22;46.78;101387.56;5075880;28;51477;-51
2021/12/30 02:19:34;;;;;;;;;0.00;0.00;;;;;21.18;47.27;101389.06;5066675;28;51086;-51
2021/12/30 02:21:59;;;;;;;;;0.50;0.00;;;;;21.15;47.13;101398.59;5057099;28;50957;-47
2021/12/30 02:24:25;;;;;;;;;1.00;0.00;;;;;21.11;47.14;101394.59;5066865;28;51023;-50
2021/12/30 02:26:51;;;;;;;;;0.00;0.00;;;;;21.08;46.75;101397.78;5077201;27;51176;-49
2021/12/30 02:29:17;;;;;;;;;0.00;0.00;;;;;21.07;47.00;101400.75;5067922;27;51334;-52
2021/12/30 02:31:43;;;;;;;;;0.00;0.00;;;;;21.02;46.74;101404.13;5067196;28;51153;-53
2021/12/30 02:34:09;;;;;;;;;0.00;0.00;;;;;21.00;46.98;101412.59;5074358;28;51138;-52
2021/12/30 02:36:36;;;;;;;;;0.00;0.00;;;;;20.97;47.24;101402.00;5071619;28;51095;-49
2021/12/30 02:39:07;;;;;;;;;0.00;0.00;;;;;20.95;47.32;101406.03;5057101;28;51269;-53
2021/12/30 02:41:34;;;;;;;;;1.25;0.00;;;;;20.92;46.74;101410.06;5056703;28;51768;-50
2021/12/30 02:44:02;;;;;;;;;0.00;0.00;;;;;20.90;46.83;101411.31;5056980;28;51150;-52
2021/12/30 02:46:28;;;;;;;;;0.00;0.00;;;;;20.88;47.00;101419.81;5065249;28;50996;-52
2021/12/30 02:48:55;;;;;;;;;0.00;0.00;;;;;20.86;46.96;101418.31;5076685;28;51168;-52
2021/12/30 02:51:21;;;;;;;;;0.00;0.00;;;;;20.83;47.41;101430.59;5076757;28;51886;-51
2021/12/30 02:53:47;;;;;;;;;0.00;0.00;;;;;20.82;46.98;101430.81;5075686;28;51209;-53
2021/12/30 02:56:13;;;;;;;;;0.00;0.00;;;;;20.79;47.24;101443.09;5076953;28;51076;-52
2021/12/30 02:58:38;;;;;;;;;0.75;0.00;;;;;20.77;47.06;101444.38;5076965;28;51168;-50
2021/12/30 03:01:15;;;;;;;;;0.00;0.00;;;;;20.75;46.97;101444.59;5056632;27;51806;-51
2021/12/30 03:03:40;;;;;;;;;0.00;0.00;;;;;20.73;47.61;101436.50;5056046;28;51032;-50
2021/12/30 03:06:08;;;;;;;;;0.00;0.00;;;;;20.72;47.02;101439.47;5056653;28;51007;-47
2021/12/30 03:08:35;;;;;;;;;0.25;0.00;;;;;20.70;47.38;101431.44;5056587;28;51317;-49
2021/12/30 03:11:01;;;;;;;;;0.25;0.00;;;;;20.68;47.16;101433.56;5056225;28;51800;-52
2021/12/30 03:13:33;;;;;;;;;0.00;0.00;;;;;20.66;47.34;101424.66;5059644;28;51001;-53
2021/12/30 03:16:06;;;;;;;;;0.00;0.00;;;;;20.65;47.40;101431.22;5075084;28;51380;-49
2021/12/30 03:18:33;;;;;;;;;0.00;0.00;;;;;20.64;47.48;101424.03;5076274;28;51321;-50
2021/12/30 03:20:59;;;;;;;;;2.00;0.00;;;;;20.62;47.60;101428.03;5076302;28;50961;-50
2021/12/30 03:23:25;;;;;;;;;0.00;0.00;;;;;20.60;47.53;101425.47;5073330;28;51121;-51
2021/12/30 03:25:51;;;;;;;;;0.00;0.00;;;;;20.60;47.38;101432.91;5075560;27;51437;-51
2021/12/30 03:28:17;;;;;;;;;0.00;0.00;;;;;20.58;47.08;101430.34;5063562;27;51145;-51
2021/12/30 03:30:42;;;;;;;;;0.25;0.00;;;;;20.57;47.09;101428.66;5057216;28;51861;-51
2021/12/30 03:33:07;;;;;;;;;0.00;0.00;;;;;20.56;47.31;101440.72;5054857;28;51094;-48
2021/12/30 03:35:33;;;;;;;;;0.00;0.00;;;;;20.55;47.28;101441.78;5074173;28;51374;-51
2021/12/30 03:37:59;;;;;;;;;0.00;0.00;;;;;20.54;47.25;101440.09;5076314;28;51052;-51
2021/12/30 03:40:24;;;;;;;;;0.00;0.00;;;;;20.53;47.74;101437.53;5076272;28;51149;-51
2021/12/30 03:42:50;;;;;;;;;0.00;0.00;;;;;20.52;47.45;101441.34;5074567;28;51161;-49
2021/12/30 03:45:16;;;;;;;;;0.00;0.00;;;;;20.51;47.76;101439.66;5061258;28;51381;-53
2021/12/30 03:47:44;;;;;;;;;0.00;0.00;;;;;20.49;47.66;101442.59;5055873;28;50963;-50
2021/12/30 03:50:20;;;;;;;;;0.75;0.75;;;;;20.48;47.33;101443.66;5055859;28;51957;-49
2021/12/30 03:52:51;;;;;;;;;0.00;0.00;;;;;20.48;47.61;101435.41;5072257;28;51139;-50
2021/12/30 03:55:18;;;;;;;;;0.00;0.00;;;;;20.46;47.40;101435.63;5061330;27;51099;-47
2021/12/30 03:57:44;;;;;;;;;0.00;0.00;;;;;20.45;47.23;101424.84;5071913;27;51297;-47
2021/12/30 04:00:12;;;;;;;;;0.00;0.00;;;;;20.44;47.74;101428.66;5055823;28;51077;-50
2021/12/30 04:02:38;;;;;;;;;0.00;0.00;;;;;20.43;47.36;101427.78;5055727;28;51303;-53
2021/12/30 04:05:04;;;;;;;;;0.00;0.00;;;;;20.43;47.43;101432.44;5067253;28;51061;-49
2021/12/30 04:07:30;;;;;;;;;0.00;0.00;;;;;20.41;47.51;101435.34;5076349;28;51207;-53
2021/12/30 04:09:55;;;;;;;;;0.00;0.00;;;;;20.41;47.38;101426.25;5075751;27;51538;-52
2021/12/30 04:12:21;;;;;;;;;0.00;0.00;;;;;20.39;47.67;101420.97;5059975;28;51710;-50
2021/12/30 04:14:47;;;;;;;;;0.00;0.00;;;;;20.38;47.29;101424.78;5057642;28;51150;-51
2021/12/30 04:17:12;;;;;;;;;0.00;0.00;;;;;20.38;47.63;101426.69;5073680;28;51393;-50
2021/12/30 04:19:37;;;;;;;;;1.00;0.00;;;;;20.37;47.54;101428.59;5073447;28;54063;-51
2021/12/30 04:22:03;;;;;;;;;0.00;0.00;;;;;20.37;47.76;101433.25;5069563;28;52490;-51
2021/12/30 04:24:28;;;;;;;;;0.00;0.00;;;;;20.36;47.58;101437.06;5058355;27;51119;-50
2021/12/30 04:26:54;;;;;;;;;0.00;0.00;;;;;20.36;47.55;101429.63;5073702;27;51375;-53
2021/12/30 04:29:20;;;;;;;;;0.00;0.00;;;;;20.35;47.64;101429.84;5082366;27;51142;-49
2021/12/30 04:31:47;;;;;;;;;0.00;0.00;;;;;20.35;47.31;101421.59;5075119;28;51368;-49
2021/12/30 04:34:13;;;;;;;;;0.50;0.00;;;;;20.34;47.54;101428.16;5062530;27;51138;-46
2021/12/30 04:36:39;;;;;;;;;0.00;0.00;;;;;20.33;47.68;101415.47;5064084;28;52208;-53
2021/12/30 04:39:05;;;;;;;;;0.00;0.00;;;;;20.31;47.77;101426.66;5057443;28;51872;-52
2021/12/30 04:41:31;;;;;;;;;0.00;0.00;;;;;20.31;47.57;101426.66;5070404;27;51203;-47
2021/12/30 04:43:56;;;;;;;;;2.00;0.00;;;;;20.31;47.49;101434.06;5063974;28;51008;-52
2021/12/30 04:46:22;;;;;;;;;0.00;0.00;;;;;20.30;47.91;101432.38;5070943;27;51338;-52
2021/12/30 04:48:49;;;;;;;;;0.00;0.00;;;;;20.30;47.67;101429.59;5070879;28;50983;-51
2021/12/30 04:51:16;;;;;;;;;0.00;0.00;;;;;20.28;47.84;101435.31;5078170;28;51021;-50
2021/12/30 04:53:41;;;;;;;;;0.00;0.00;;;;;20.29;47.56;101436.16;5078997;28;51231;-50
2021/12/30 04:56:06;;;;;;;;;0.00;0.00;;;;;20.28;47.83;101445.47;5070457;27;51314;-52
2021/12/30 04:58:32;;;;;;;;;0.00;0.00;;;;;20.28;47.75;101442.72;5058296;28;51244;-50
2021/12/30 05:00:57;;;;;;;;;0.00;0.00;;;;;20.27;47.55;101447.38;5060236;28;51091;-49
2021/12/30 05:03:23;;;;;;;;;0.00;0.00;;;;;20.26;47.49;101448.44;5058338;28;51157;-49
2021/12/30 05:05:51;;;;;;;;;0.00;0.00;;;;;20.26;47.88;101447.59;5086164;27;51167;-50
2021/12/30 05:08:19;;;;;;;;;2.00;0.00;;;;;20.26;47.79;101455.84;5068837;28;51903;-50
2021/12/30 05:10:45;;;;;;;;;0.00;0.00;;;;;20.25;47.92;101470.66;5058418;28;51214;-52
2021/12/30 05:13:11;;;;;;;;;0.00;0.00;;;;;20.25;47.88;101467.91;5058823;28;51069;-50
2021/12/30 05:15:39;;;;;;;;;0.00;0.00;;;;;20.24;47.70;101478.06;5059111;28;51149;-50
2021/12/30 05:18:07;;;;;;;;;0.00;0.00;;;;;20.22;47.63;101480.19;5057067;28;51741;-52
2021/12/30 05:20:32;;;;;;;;;0.00;0.00;;;;;20.23;47.63;101475.53;5058055;28;51201;-51
2021/12/30 05:22:58;;;;;;;;;0.25;0.00;;;;;20.23;47.47;101475.53;5063537;28;51104;-50
2021/12/30 05:25:24;;;;;;;;;0.00;0.00;;;;;20.22;48.03;101476.56;5077237;28;51840;-52
2021/12/30 05:27:50;;;;;;;;;0.00;0.00;;;;;20.22;47.51;101476.56;5094980;27;51239;-50
2021/12/30 05:30:17;;;;;;;;;0.00;0.00;;;;;20.20;48.12;101465.75;5087374;27;51148;-49
2021/12/30 05:32:43;;;;;;;;;0.25;0.00;;;;;20.21;47.67;101472.09;5071163;27;51162;-50
2021/12/30 05:35:11;;;;;;;;;0.00;0.00;;;;;20.19;47.74;101470.41;5058292;28;51814;-51
2021/12/30 05:37:37;;;;;;;;;0.00;0.00;;;;;20.18;48.10;101474.22;5057821;28;51814;-50
2021/12/30 05:40:08;;;;;;;;;1.00;0.00;;;;;20.18;47.68;101473.38;5057818;28;51034;-51
2021/12/30 05:42:33;;;;;;;;;0.00;0.00;;;;;20.18;47.85;101482.47;5060917;28;51128;-51
2021/12/30 05:44:58;;;;;;;;;0.00;0.00;;;;;20.17;47.85;101500.03;5077034;28;51031;-49
2021/12/30 05:47:24;;;;;;;;;0.00;0.00;;;;;20.17;47.85;101504.69;5060237;28;51902;-49
2021/12/30 05:49:50;;;;;;;;;0.25;0.00;;;;;20.15;48.18;101515.91;5076645;28;51140;-50
2021/12/30 05:52:15;;;;;;;;;0.00;0.00;;;;;20.16;47.85;101503.00;5072879;28;51196;-52
2021/12/30 05:54:42;;;;;;;;;0.00;0.00;;;;;20.15;47.71;101510.41;5076580;28;51104;-49
2021/12/30 05:57:07;;;;;;;;;0.00;0.00;;;;;20.14;48.09;101511.47;5077907;28;52439;-51
2021/12/30 05:59:33;;;;;;;;;0.00;0.00;;;;;20.14;47.82;101510.59;5065899;28;51106;-52
2021/12/30 06:01:58;;;;;;;;;0.25;0.00;;;;;20.13;47.75;101515.25;5070686;28;51624;-50
2021/12/30 06:04:25;;;;;;;;;0.00;0.00;;;;;20.13;47.99;101520.75;5056240;28;51188;-53
2021/12/30 06:06:50;;;;;;;;;0.00;0.00;;;;;20.13;48.05;101522.66;5057281;28;52696;-50
2021/12/30 06:09:16;;;;;;;;;0.00;0.00;;;;;20.12;47.55;101527.31;5057480;28;51369;-50
2021/12/30 06:11:41;;;;;;;;;0.00;0.00;;;;;20.13;47.67;101525.41;5075787;28;51151;-52
2021/12/30 06:14:06;;;;;;;;;1.00;0.00;;;;;20.11;48.24;101528.38;5072140;28;51415;-52
2021/12/30 06:16:33;;;;;;;;;0.00;0.00;;;;;20.11;47.89;101530.25;5077547;28;51010;-50
2021/12/30 06:18:59;;;;;;;;;0.00;0.00;;;;;20.11;48.00;101522.88;5077330;28;51129;-52
2021/12/30 06:21:25;;;;;;;;;2.00;0.00;;;;;20.10;48.16;101526.66;5077188;28;51112;-51
2021/12/30 06:23:51;;;;;;;;;0.50;0.00;;;;;20.09;47.89;101522.19;5075483;27;51097;-50
2021/12/30 06:26:16;;;;;;;;;1.00;0.00;;;;;20.08;47.84;101523.25;5065816;27;51184;-52
2021/12/30 06:28:42;;;;;;;;;0.75;0.75;;;;;20.09;47.76;101529.59;5087524;27;51213;-50
2021/12/30 06:31:07;;;;;;;;;1.00;0.00;;;;;20.08;47.93;101526.00;5076132;28;51008;-49
2021/12/30 06:33:32;;;;;;;;;0.00;0.00;;;;;20.08;47.84;101525.16;5057249;28;51388;-51
2021/12/30 06:35:58;;;;;;;;;0.00;0.00;;;;;20.07;47.72;101521.56;5062063;28;51051;-49
2021/12/30 06:38:23;;;;;;;;;0.00;0.00;;;;;20.07;48.08;101529.81;5065169;28;51140;-53
2021/12/30 06:40:49;;;;;;;;;0.00;0.00;;;;;20.07;48.10;101535.31;5059432;28;51177;-51
2021/12/30 06:43:14;;;;;;;;;0.00;0.00;;;;;20.06;47.84;101541.88;5074199;28;51093;-50
2021/12/30 06:45:39;;;;;;;;;0.00;0.00;;;;;20.05;47.84;101536.59;5068607;28;50990;-50
2021/12/30 06:48:06;;;;;;;;;0.00;0.00;;;;;20.04;48.04;101543.97;5075093;28;51146;-49
2021/12/30 06:50:33;;;;;;;;;0.25;0.00;;;;;20.05;48.24;101542.94;5072473;27;51160;-48
2021/12/30 06:52:59;;;;;;;;;0.00;0.00;;;;;20.04;48.12;101549.47;5068868;28;51321;-49
2021/12/30 06:55:25;;;;;;;;;0.50;0.50;;;;;20.05;47.96;101553.09;5066813;28;52037;-51
2021/12/30 06:57:50;;;;;;;;;0.00;0.00;;;;;20.04;48.29;101543.13;5076819;28;51050;-51
2021/12/30 07:00:16;;;;;;;;;0.00;0.00;;;;;20.04;47.96;101567.88;5069952;28;51141;-50
2021/12/30 07:02:43;;;;;;;;;0.50;0.50;;;;;20.03;48.15;101561.53;5076732;27;51118;-52
2021/12/30 07:05:09;;;;;;;;;0.75;0.75;;;;;20.03;48.42;101566.19;5062348;28;52554;-49
2021/12/30 07:07:35;;;;;;;;;4.50;2.25;;;;;20.01;48.84;101568.28;5066533;28;51117;-49
2021/12/30 07:10:00;;;;;;;;;1.00;1.00;;;;;19.98;48.97;101566.78;5075243;27;51145;-47
2021/12/30 07:12:25;;;;;;;;;2.00;1.50;;;;;19.96;49.20;101577.13;5076274;28;51258;-49
2021/12/30 07:14:51;;;;;;;;;1.00;1.00;;;;;19.93;49.22;101577.53;5063299;27;51240;-52
2021/12/30 07:17:16;;;;;;;;;1.50;1.50;;;;;19.92;49.69;101583.25;5062513;28;51170;-49
2021/12/30 07:19:42;;;;;;;;;5.00;1.00;;;;;19.88;49.40;101586.38;5057211;28;51373;-52
2021/12/30 07:22:07;;;;;;;;;2.25;1.25;;;;;19.87;50.10;101590.19;5068432;28;52623;-50
2021/12/30 07:24:32;;;;;;;;;2.50;2.00;;;;;19.85;50.33;101589.53;5059692;28;51178;-46
2021/12/30 07:26:58;;;;;;;;;2.50;1.50;;;;;19.89;50.36;101593.56;5078103;27;51239;-47
2021/12/30 07:29:23;;;;;;;;;1.00;1.00;;;;;19.96;49.94;101590.03;5068444;27;51360;-52
2021/12/30 07:31:49;;;;;;;;;3.25;1.00;;;;;20.03;50.36;101588.19;5068658;28;51568;-55
2021/12/30 07:34:14;;;;;;;;;2.25;1.00;;;;;20.12;50.45;101590.59;5074116;28;51742;-48
2021/12/30 07:36:40;;;;;;;;;0.50;0.50;;;;;20.23;49.93;101589.16;5062445;28;51382;-53
2021/12/30 07:39:05;;;;;;;;;3.75;0.25;;;;;20.32;49.85;101598.97;5062474;28;51282;-51
2021/12/30 07:41:31;;;;;;;;;0.00;0.00;;;;;20.41;49.83;101599.63;5060192;28;51415;-52
2021/12/30 07:43:56;;;;;;;;;2.00;2.00;;;;;20.50;49.90;101605.84;5057169;28;51095;-49
2021/12/30 07:46:22;;;;;;;;;0.00;0.00;;;;;20.60;49.77;101607.16;5053512;28;51046;-48
2021/12/30 07:48:47;;;;;;;;;1.00;0.75;;;;;20.68;49.24;101608.91;5074088;28;51438;-50
2021/12/30 07:51:13;;;;;;;;;0.75;0.00;;;;;20.75;49.59;101596.88;5076516;28;51088;-51
2021/12/30 07:53:39;;;;;;;;;1.50;1.00;;;;;20.80;49.54;101611.91;5066863;27;51942;-49
2021/12/30 07:56:06;;;;;;;;;2.00;0.25;;;;;20.80;48.96;101625.66;5065210;27;51240;-50
2021/12/30 07:58:32;;;;;;;;;1.50;1.50;;;;;20.80;49.23;101621.00;5072257;28;51107;-52
2021/12/30 08:00:57;;;;;;;;;2.00;0.75;;;;;20.80;49.47;101625.66;5085618;27;51133;-47
2021/12/30 08:03:22;;;;;;;;;2.00;0.50;;;;;20.80;49.31;101628.44;5064720;28;51011;-51
2021/12/30 08:05:49;;;;;;;;;1.75;1.75;;;;;20.85;49.21;101639.69;5065203;28;51251;-53
2021/12/30 08:08:14;;;;;;;;;3.00;3.00;;;;;20.91;49.28;101649.88;5059720;28;51105;-51
2021/12/30 08:10:40;;;;;;;;;1.25;1.25;;;;;20.97;49.43;101651.81;5056356;28;51518;-50
2021/12/30 08:13:05;;;;;;;;;1.00;0.50;;;;;21.00;49.81;101673.41;5054918;28;52014;-48
2021/12/30 08:15:31;;;;;;;;;4.25;1.50;;;;;21.02;49.33;101663.03;5066561;28;51260;-47
2021/12/30 08:17:56;;;;;;;;;3.00;1.00;;;;;21.02;49.91;101666.63;5080499;27;51042;-48
2021/12/30 08:20:22;;;;;;;;;2.00;1.75;;;;;21.02;49.73;101674.91;5061173;28;51049;-52
2021/12/30 08:22:48;;;;;;;;;0.50;0.50;;;;;21.04;49.82;101671.94;5065877;28;51878;-52
2021/12/30 08:25:14;;;;;;;;;4.25;2.00;;;;;21.08;49.65;101673.25;5063767;28;51034;-52
2021/12/30 08:27:41;;;;;;;;;1.75;1.75;;;;;21.15;49.33;101662.22;5071840;27;51050;-52
2021/12/30 08:30:10;;;;;;;;;3.25;1.25;;;;;21.19;49.22;101675.41;5059979;28;51338;-51
2021/12/30 08:32:36;;;;;;;;;2.50;1.00;;;;;21.21;49.35;101673.28;5064845;28;51716;-51
2021/12/30 08:35:02;;;;;;;;;2.00;1.25;;;;;21.21;49.17;101676.03;5064904;27;51099;-54
2021/12/30 08:37:28;;;;;;;;;5.25;2.75;;;;;21.22;49.78;101686.00;5062776;28;51150;-51
2021/12/30 08:39:53;;;;;;;;;1.75;0.50;;;;;21.21;49.50;101694.47;5065791;28;51405;-51
2021/12/30 08:42:23;;;;;;;;;5.75;1.25;;;;;21.23;49.28;101697.88;5059559;28;51091;-53
2021/12/30 08:44:49;;;;;;;;;3.00;1.75;;;;;21.28;49.10;101703.66;5057383;27;51356;-50
2021/12/30 08:47:15;;;;;;;;;3.00;2.00;;;;;21.36;49.09;101699.84;5063700;28;52726;-52
2021/12/30 08:49:44;;;;;;;;;4.50;1.00;;;;;21.39;49.18;101703.06;5061342;28;51824;-51
2021/12/30 08:52:10;;;;;;;;;4.00;3.00;;;;;21.42;49.13;101702.63;5057002;28;52717;-51
2021/12/30 08:54:36;;;;;;;;;5.25;2.75;;;;;21.43;48.92;101706.22;5063104;28;51450;-52
2021/12/30 08:57:03;;;;;;;;;2.50;1.25;;;;;21.44;48.90;101697.75;5068035;27;51124;-51
2021/12/30 08:59:28;;;;;;;;;4.00;2.50;;;;;21.41;49.12;101695.41;5067471;28;52003;-50
2021/12/30 09:01:54;;;;;;;;;7.75;2.50;;;;;21.42;48.71;101707.28;5070064;28;51886;-53
2021/12/30 09:04:19;;;;;;;;;4.00;2.50;;;;;21.40;49.14;101698.38;5067348;28;51125;-51
2021/12/30 09:06:45;;;;;;;;;5.00;4.00;;;;;21.38;49.20;101695.00;5059495;28;51418;-49
2021/12/30 09:09:10;;;;;;;;;5.00;2.25;;;;;21.34;49.14;101697.31;5065080;28;51114;-50
2021/12/30 09:11:36;;;;;;;;;6.00;3.00;;;;;21.32;49.19;101699.41;5076716;28;52014;-51
2021/12/30 09:14:01;;;;;;;;;2.75;2.75;;;;;21.29;49.14;101705.34;5075902;28;51205;-47
2021/12/30 09:16:26;;;;;;;;;2.75;2.00;;;;;21.26;49.04;101703.88;5070166;28;51138;-49
2021/12/30 09:18:51;;;;;;;;;10.00;4.50;;;;;21.22;49.12;101702.53;5065706;28;51027;-49
2021/12/30 09:21:17;;;;;;;;;3.50;2.00;;;;;21.19;48.89;101708.47;5077133;28;51065;-51
2021/12/30 09:23:42;;;;;;;;;1.00;1.00;;;;;21.16;49.15;101714.41;5077156;28;50956;-49
2021/12/30 09:26:08;;;;;;;;;3.50;3.50;;;;;21.13;49.15;101714.78;5069930;27;51250;-52
2021/12/30 09:28:33;;;;;;;;;2.75;2.75;;;;;21.09;48.83;101713.50;5064396;27;51390;-52
2021/12/30 09:30:59;;;;;;;;;3.00;2.75;;;;;21.06;49.15;101713.94;5061879;28;50974;-53
2021/12/30 09:33:24;;;;;;;;;3.25;2.00;;;;;21.03;49.29;101717.06;5074968;28;51244;-50
2021/12/30 09:35:49;;;;;;;;;4.50;3.00;;;;;21.01;48.80;101722.78;5060981;28;51497;-46
2021/12/30 09:38:15;;;;;;;;;2.75;1.25;;;;;20.96;48.90;101717.06;5070602;28;51173;-49
2021/12/30 09:40:40;;;;;;;;;4.25;2.00;;;;;20.95;48.77;101714.53;5076676;28;51963;-48
2021/12/30 09:43:09;;;;;;;;;2.25;2.25;;;;;20.92;48.95;101723.16;5064247;28;50997;-49
2021/12/30 09:45:37;;;;;;;;;2.50;2.00;;;;;20.90;49.22;101722.53;5063555;28;51156;-52
2021/12/30 09:48:06;;;;;;;;;4.00;1.00;;;;;20.87;49.30;101722.94;5074755;28;51211;-51
2021/12/30 09:50:36;;;;;;;;;5.50;3.00;;;;;20.86;48.72;101729.50;5067198;28;51077;-53
2021/12/30 09:53:02;;;;;;;;;2.00;1.25;;;;;20.83;49.36;101727.13;5056373;28;51177;-52
2021/12/30 09:55:28;;;;;;;;;1.50;1.50;;;;;20.81;49.00;101721.00;5067453;28;51200;-53
2021/12/30 09:57:54;;;;;;;;;1.25;1.25;;;;;20.79;49.17;101728.59;5056343;28;51236;-49
2021/12/30 10:00:21;;;;;;;;;5.75;2.00;;;;;20.75;48.80;101726.28;5056049;28;51696;-51
2021/12/30 10:02:47;;;;;;;;;3.00;1.00;;;;;20.74;48.80;101732.84;5072351;28;51139;-47
2021/12/30 10:05:17;;;;;;;;;2.00;2.00;;;;;20.72;49.25;101723.91;5074379;28;51063;-47
2021/12/30 10:07:42;;;;;;;;;2.75;1.75;;;;;20.71;49.37;101735.13;5076141;28;51288;-52
2021/12/30 10:10:27;;;;;;;;;4.25;2.00;;;;;20.69;49.32;101738.09;5076055;28;51802;-46
2021/12/30 10:12:52;;;;;;;;;2.00;1.75;;;;;20.68;49.28;101738.28;5076134;28;51322;-50
2021/12/30 10:15:20;;;;;;;;;6.00;2.00;;;;;20.66;48.84;101741.25;5066016;28;51208;-48
2021/12/30 10:17:57;;;;;;;;;2.75;2.00;;;;;20.65;48.98;101746.97;5057365;28;51304;-47
2021/12/30 10:20:27;;;;;;;;;2.25;2.25;;;;;20.63;48.79;101736.13;5076031;28;51139;-49
2021/12/30 10:22:55;;;;;;;;;2.50;1.25;;;;;20.61;49.41;101741.00;5066253;28;50883;-52
2021/12/30 10:25:32;;;;;;;;;3.00;2.00;;;;;20.60;49.15;101738.44;5063190;28;51002;-48
2021/12/30 10:28:35;;;;;;;;;3.00;2.75;;;;;20.60;49.30;101731.03;5076032;27;52359;-50
2021/12/30 10:31:10;;;;;;;;;2.75;2.75;;;;;20.59;48.82;101734.84;5070456;28;52100;-49
2021/12/30 10:33:35;;;;;;;;;3.25;2.00;;;;;20.57;49.28;101750.72;5059432;28;51092;-51
2021/12/30 10:36:01;;;;;;;;;2.75;1.50;;;;;20.56;49.29;101743.50;5055548;28;51164;-52
2021/12/30 10:38:30;;;;;;;;;3.00;2.00;;;;;20.55;48.87;101747.31;5056135;28;51110;-52
2021/12/30 10:41:01;;;;;;;;;3.00;2.50;;;;;20.55;48.83;101746.47;5073785;28;52174;-51
2021/12/30 10:43:37;;;;;;;;;1.50;1.25;;;;;20.53;48.84;101757.69;5071584;28;51183;-52
2021/12/30 10:46:04;;;;;;;;;3.00;2.00;;;;;20.53;48.87;101751.28;5073079;28;51698;-47
2021/12/30 10:48:29;;;;;;;;;1.00;1.00;;;;;20.52;49.32;101747.69;5070539;28;51234;-52
2021/12/30 10:51:09;;;;;;;;;2.75;1.00;;;;;20.53;48.71;101743.03;5054752;28;51160;-47
2021/12/30 10:53:37;;;;;;;;;4.00;2.50;;;;;20.50;49.22;101732.44;5057330;28;51121;-53
2021/12/30 10:56:26;;;;;;;;;2.00;1.75;;;;;20.50;49.18;101735.19;5056626;28;51428;-49
2021/12/30 10:59:37;;;;;;;;;3.00;3.00;;;;;20.48;48.91;101732.66;5058143;28;51245;-52
2021/12/30 11:02:17;;;;;;;;;3.25;2.75;;;;;20.47;49.04;101733.69;5048801;28;52266;-50
2021/12/30 11:04:53;;;;;;;;;3.50;2.50;;;;;20.45;48.94;101730.31;5052248;28;51080;-47
2021/12/30 11:07:46;;;;;;;;;1.00;1.00;;;;;20.45;49.26;101728.41;5054421;28;51267;-51
2021/12/30 11:10:27;;;;;;;;;2.25;1.50;;;;;20.45;49.30;101733.06;5061427;28;51144;-50
2021/12/30 11:12:52;;;;;;;;;2.50;2.00;;;;;20.44;49.38;101734.13;5074158;28;52058;-51
2021/12/30 11:15:21;;;;;;;;;1.00;1.00;;;;;20.41;49.24;101738.06;5065147;28;51260;-50
2021/12/30 11:17:48;;;;;;;;;1.00;1.00;;;;;20.41;48.90;101735.31;5069762;28;51149;-50
2021/12/30 11:20:19;;;;;;;;;2.00;2.00;;;;;20.41;48.92;101737.22;5063623;28;51003;-52
2021/12/30 11:22:48;;;;;;;;;3.25;2.50;;;;;20.41;49.08;101739.97;5073174;28;53163;-51
2021/12/30 11:25:20;;;;;;;;;1.75;1.75;;;;;20.40;49.03;101735.50;5075002;28;51184;-50